Time;durP1;ratioP1;P1;durP2;ratioP2;P2;SDS_P1;SDS_P2;PMS_P1;PMS_P2;Temp;Humidity;BMP_temperature;BMP_pressure;BME280_temperature;BME280_humidity;BME280_pressure;Samples;Min_cycle;Max_cycle;Signal;HPM_P1;HPM_P2
2023/01/12 00:01:15;;;;;;;42.22;5.20;;;;;;;;;;4884471;29;20052;-76
2023/01/12 00:03:41;;;;;;;38.45;4.38;;;;;;;;;;4899216;29;20103;-75
2023/01/12 00:06:08;;;;;;;32.47;3.47;;;;;;;;;;4886985;29;20130;-76
2023/01/12 00:08:34;;;;;;;46.28;4.25;;;;;;;;;;4902562;29;20059;-76
2023/01/12 00:11:00;;;;;;;49.92;5.20;;;8.30;99.90;;;;;;4902536;29;20088;-76
2023/01/12 00:13:30;;;;;;;26.63;5.05;;;;;;;;;;4903486;29;20051;-76
2023/01/12 00:18:42;;;;;;;34.38;4.45;;;;;;;;;;4903251;29;20052;-76
2023/01/12 00:21:08;;;;;;;34.38;5.28;;;;;;;;;;4903265;29;20054;-76
2023/01/12 00:23:34;;;;;;;48.15;4.90;;;;;;;;;;4903167;29;20523;-76
2023/01/12 00:26:00;;;;;;;45.78;5.85;;;;;;;;;;4903170;29;20107;-75
2023/01/12 00:28:26;;;;;;;53.08;6.03;;;;;;;;;;4903044;29;20079;-75
2023/01/12 00:30:52;;;;;;;42.38;4.88;;;;;;;;;;4887757;29;20080;-75
2023/01/12 00:33:19;;;;;;;46.45;6.05;;;;;;;;;;4887059;29;20044;-75
2023/01/12 00:35:45;;;;;;;48.85;4.60;;;;;;;;;;4903303;29;20074;-76
2023/01/12 00:38:11;;;;;;;42.25;4.85;;;;;;;;;;4903081;29;20044;-75
2023/01/12 00:40:37;;;;;;;39.83;4.80;;;;;;;;;;4887854;29;20051;-76
2023/01/12 00:45:51;;;;;;;49.50;4.65;;;;;;;;;;4889914;29;20048;-76
2023/01/12 00:48:17;;;;;;;37.67;5.00;;;;;;;;;;4902806;29;20477;-76
2023/01/12 00:50:45;;;;;;;30.23;4.07;;;8.00;99.90;;;;;;4902811;29;20044;-75
2023/01/12 00:53:14;;;;;;;46.50;5.32;;;;;;;;;;4902716;29;20048;-76
2023/01/12 00:55:40;;;;;;;41.70;5.10;;;;;;;;;;4902684;29;20040;-76
2023/01/12 00:58:06;;;;;;;40.95;4.70;;;;;;;;;;4902645;29;20122;-76
2023/01/12 01:00:33;;;;;;;41.15;6.07;;;;;;;;;;4902594;29;20103;-76
2023/01/12 01:02:59;;;;;;;29.90;5.22;;;;;;;;;;4887054;29;20088;-76
2023/01/12 01:05:25;;;;;;;50.63;5.13;;;;;;;;;;4902460;29;20051;-76
2023/01/12 01:07:51;;;;;;;54.95;5.15;;;;;;;;;;4902582;29;20059;-76
2023/01/12 01:10:17;;;;;;;49.58;4.35;;;;;;;;;;4887223;29;20040;-75
2023/01/12 01:12:44;;;;;;;39.08;4.38;;;;;;;;;;4902690;29;20055;-76
2023/01/12 01:15:10;;;;;;;40.90;5.80;;;;;;;;;;4918684;29;20051;-76
2023/01/12 01:17:36;;;;;;;32.70;3.92;;;;;;;;;;4902521;29;20070;-76
2023/01/12 01:20:03;;;;;;;36.90;4.32;;;;;;;;;;4902280;29;20058;-76
2023/01/12 01:22:29;;;;;;;33.05;5.43;;;;;;;;;;4902494;29;20052;-76
2023/01/12 01:24:55;;;;;;;35.38;5.13;;;;;;;;;;4886648;29;20054;-76
2023/01/12 01:27:21;;;;;;;29.20;5.35;;;;;;;;;;4902163;29;20104;-72
2023/01/12 01:29:47;;;;;;;44.17;4.43;;;;;;;;;;4886784;29;20076;-71
2023/01/12 01:32:13;;;;;;;28.27;4.20;;;;;;;;;;4902276;29;20052;-71
2023/01/12 01:34:40;;;;;;;39.17;4.90;;;;;;;;;;4902250;29;20153;-72
2023/01/12 01:37:06;;;;;;;46.35;5.43;;;;;;;;;;4901950;29;20040;-72
2023/01/12 01:39:32;;;;;;;36.40;4.03;;;;;;;;;;4901894;29;20527;-72
2023/01/12 01:41:59;;;;;;;38.13;5.15;;;;;;;;;;4902181;29;20120;-72
2023/01/12 01:44:28;;;;;;;41.15;5.63;;;;;;;;;;4901786;29;20044;-72
2023/01/12 01:46:58;;;;;;;62.22;6.38;;;8.30;99.90;;;;;;4902155;29;20434;-72
2023/01/12 01:49:39;;;;;;;45.42;6.13;;;8.00;99.90;;;;;;4901938;29;20468;-71
2023/01/12 01:52:11;;;;;;;40.97;4.53;;;;;;;;;;4886057;29;20378;-71
2023/01/12 01:54:43;;;;;;;47.87;5.20;;;8.30;99.90;;;;;;4901822;29;20051;-72
2023/01/12 01:57:11;;;;;;;36.00;5.28;;;8.10;99.90;;;;;;4901867;29;20288;-72
2023/01/12 01:59:40;;;;;;;45.17;5.30;;;8.10;99.90;;;;;;4901789;29;20070;-72
2023/01/12 02:02:06;;;;;;;33.60;4.78;;;;;;;;;;4918447;29;20123;-71
2023/01/12 02:04:32;;;;;;;48.58;4.85;;;;;;;;;;4901296;29;20048;-72
2023/01/12 02:07:00;;;;;;;40.42;4.55;;;;;;;;;;4901378;29;20095;-72
2023/01/12 02:09:27;;;;;;;50.72;6.75;;;8.20;99.90;;;;;;4901285;29;20560;-71
2023/01/12 02:17:52;;;;;;;63.65;5.97;;;;;;;;;;4901189;29;20120;-71
2023/01/12 02:20:30;;;;;;;53.05;6.03;;;8.20;99.90;;;;;;4876124;29;20060;-71
2023/01/12 02:23:11;;;;;;;49.63;5.35;;;;;;;;;;4901079;29;20135;-71
2023/01/12 02:25:46;;;;;;;37.85;4.82;;;;;;;;;;4885483;29;20540;-71
2023/01/12 02:28:25;;;;;;;50.83;6.57;;;;;;;;;;4900221;29;20497;-71
2023/01/12 02:31:24;;;;;;;49.72;5.00;;;8.20;99.90;;;;;;4900981;29;20147;-71
2023/01/12 02:33:59;;;;;;;45.25;6.47;;;;;;;;;;4901338;29;20055;-71
2023/01/12 02:36:25;;;;;;;59.05;5.97;;;;;;;;;;4900910;29;20044;-71
2023/01/12 02:39:01;;;;;;;40.47;5.30;;;8.40;99.90;;;;;;4900819;29;20159;-71
2023/01/12 02:44:41;;;;;;;53.47;6.55;;;8.40;99.90;;;;;;4900862;29;20055;-71
2023/01/12 02:47:15;;;;;;;60.30;6.07;;;8.30;99.90;;;;;;4900579;29;20075;-72
2023/01/12 02:49:44;;;;;;;56.83;5.50;;;;;;;;;;4900996;29;20043;-72
2023/01/12 02:52:14;;;;;;;67.95;7.13;;;;;;;;;;4900483;29;20051;-72
2023/01/12 02:54:43;;;;;;;68.65;9.13;;;8.50;99.90;;;;;;4884922;29;20044;-72
2023/01/12 02:57:10;;;;;;;69.30;7.30;;;;;;;;;;4900705;29;20040;-71
2023/01/12 02:59:40;;;;;;;62.88;7.85;;;8.40;99.90;;;;;;4900821;29;20366;-71
2023/01/12 03:02:17;;;;;;;65.13;7.28;;;8.60;99.90;;;;;;4900305;29;20206;-72
2023/01/12 03:04:43;;;;;;;66.07;7.15;;;;;;;;;;4900204;29;20099;-72
2023/01/12 03:07:50;;;;;;;75.47;7.22;;;8.40;99.90;;;;;;4917343;29;20474;-72
2023/01/12 03:10:25;;;;;;;50.05;5.63;;;;;;;;;;4900301;29;20095;-71
2023/01/12 03:12:53;;;;;;;58.72;7.35;;;8.50;99.90;;;;;;4900182;29;20059;-71
2023/01/12 03:15:23;;;;;;;63.95;6.68;;;8.40;99.90;;;;;;4900142;29;20503;-71
2023/01/12 03:18:00;;;;;;;50.92;7.00;;;;;;;;;;4917030;29;20052;-71
2023/01/12 03:20:30;;;;;;;62.33;8.05;;;;;;;;;;4900363;29;20050;-71
2023/01/12 03:23:06;;;;;;;72.07;8.52;;;8.60;99.90;;;;;;4900074;29;20044;-72
2023/01/12 03:25:33;;;;;;;62.58;8.07;;;;;;;;;;4884533;29;20055;-71
2023/01/12 03:28:00;;;;;;;65.13;9.55;;;;;;;;;;4900202;29;20124;-72
2023/01/12 03:30:35;;;;;;;73.30;9.07;;;8.40;99.90;;;;;;4900341;29;20047;-72
2023/01/12 03:33:03;;;;;;;105.15;10.60;;;8.60;99.90;;;;;;4900093;29;20048;-71
2023/01/12 03:35:34;;;;;;;69.97;8.25;;;8.70;99.90;;;;;;4899920;29;20048;-71
2023/01/12 03:38:37;;;;;;;66.53;8.70;;;8.50;99.90;;;;;;4899978;29;20085;-71
2023/01/12 03:41:11;;;;;;;52.67;8.15;;;;;;;;;;4900079;29;20493;-71
2023/01/12 03:43:42;;;;;;;72.55;6.28;;;8.60;99.90;;;;;;4899968;29;20051;-71
2023/01/12 03:46:08;;;;;;;63.97;8.57;;;;;;;;;;4899865;29;20389;-71
2023/01/12 03:48:37;;;;;;;61.03;6.03;;;;;;;;;;4884459;29;20312;-71
2023/01/12 03:51:10;;;;;;;73.63;7.88;;;8.70;99.90;;;;;;4884663;29;20041;-71
2023/01/12 03:53:38;;;;;;;75.65;9.82;;;8.60;99.90;;;;;;4884416;29;20044;-71
2023/01/12 03:56:08;;;;;;;57.28;7.43;;;8.80;99.90;;;;;;4915404;29;20493;-71
2023/01/12 03:58:34;;;;;;;60.50;6.45;;;;;;;;;;4899848;29;20040;-71
2023/01/12 04:01:04;;;;;;;49.30;5.57;;;;;;;;;;4899797;29;20131;-71
2023/01/12 04:03:30;;;;;;;62.65;7.20;;;;;;;;;;4899855;29;20071;-71
2023/01/12 04:06:00;;;;;;;52.47;5.60;;;;;;;;;;4884157;29;20048;-71
2023/01/12 04:08:26;;;;;;;51.33;5.68;;;;;;;;;;4899627;29;20504;-71
2023/01/12 04:10:52;;;;;;;69.75;7.35;;;;;;;;;;4916523;29;20066;-71
2023/01/12 04:13:19;;;;;;;49.90;4.97;;;;;;;;;;4899675;29;20048;-71
2023/01/12 04:15:46;;;;;;;34.38;5.35;;;;;;;;;;4899736;29;20109;-71
2023/01/12 04:18:12;;;;;;;51.50;7.80;;;;;;;;;;4899880;29;20122;-71
2023/01/12 04:20:39;;;;;;;35.38;4.65;;;8.80;99.90;;;;;;4899523;29;20112;-71
2023/01/12 04:23:08;;;;;;;43.92;4.30;;;8.50;99.90;;;;;;4899442;29;20048;-71
2023/01/12 04:25:35;;;;;;;36.22;3.50;;;;;;;;;;4900048;29;20071;-71
2023/01/12 04:28:01;;;;;;;44.63;5.50;;;;;;;;;;4899397;29;20044;-75
2023/01/12 04:30:29;;;;;;;26.30;4.15;;;8.60;99.90;;;;;;4899592;29;20036;-75
2023/01/12 04:32:56;;;;;;;37.95;6.72;;;;;;;;;;4899319;29;20052;-75
2023/01/12 04:35:23;;;;;;;21.95;2.75;;;;;;;;;;4899466;29;20481;-75
2023/01/12 04:37:49;;;;;;;21.63;3.55;;;;;;;;;;4899509;29;20477;-75
2023/01/12 04:40:16;;;;;;;29.35;4.35;;;;;;;;;;4899414;29;20059;-75
2023/01/12 04:43:05;;;;;;;49.33;4.30;;;8.60;99.90;;;;;;4899535;29;20052;-71
2023/01/12 04:45:32;;;;;;;39.03;4.25;;;;;;;;;;4899696;29;20048;-71
2023/01/12 04:48:03;;;;;;;25.65;2.95;;;8.60;99.90;;;;;;4899531;29;20100;-71
2023/01/12 04:50:29;;;;;;;38.28;5.20;;;;;;;;;;4900657;29;20453;-71
2023/01/12 04:52:56;;;;;;;41.80;5.55;;;;;;;;;;4902710;29;20127;-72
2023/01/12 04:55:22;;;;;;;31.92;4.80;;;;;;;;;;4902728;29;20044;-71
2023/01/12 04:57:48;;;;;;;36.25;4.97;;;;;;;;;;4902849;29;20052;-71
2023/01/12 05:00:14;;;;;;;38.47;4.32;;;;;;;;;;4902686;29;20127;-72
2023/01/12 05:02:41;;;;;;;44.88;5.70;;;;;;;;;;4902709;29;20067;-72
2023/01/12 05:05:08;;;;;;;32.03;5.57;;;;;;;;;;4902838;29;20120;-71
2023/01/12 05:07:34;;;;;;;32.38;3.35;;;;;;;;;;4886792;29;20064;-72
2023/01/12 05:12:45;;;;;;;31.27;4.90;;;;;;;;;;4902355;29;20052;-71
2023/01/12 05:15:11;;;;;;;15.57;4.25;;;;;;;;;;4902234;29;20113;-71
2023/01/12 05:17:37;;;;;;;25.83;4.20;;;;;;;;;;4902357;29;20047;-72
2023/01/12 05:20:03;;;;;;;24.95;3.50;;;;;;;;;;4902326;29;20054;-72
2023/01/12 05:22:30;;;;;;;17.52;3.38;;;8.30;99.90;;;;;;4902443;29;20044;-72
2023/01/12 05:24:56;;;;;;;15.38;3.45;;;;;;;;;;4902477;29;20071;-71
2023/01/12 05:27:23;;;;;;;14.82;2.75;;;;;;;;;;4902068;29;20052;-72
2023/01/12 05:29:49;;;;;;;19.35;3.65;;;;;;;;;;4902354;29;20044;-71
2023/01/12 05:32:15;;;;;;;8.50;2.97;;;;;;;;;;4919058;29;20052;-72
2023/01/12 05:34:41;;;;;;;12.20;3.15;;;;;;;;;;4886551;29;20055;-71
2023/01/12 05:37:07;;;;;;;13.40;3.38;;;;;;;;;;4886489;29;20048;-72
2023/01/12 05:39:33;;;;;;;8.23;2.40;;;;;;;;;;4902243;29;20048;-72
2023/01/12 05:44:44;;;;;;;10.82;2.40;;;;;;;;;;4901700;29;20139;-72
2023/01/12 05:47:10;;;;;;;9.75;2.50;;;;;;;;;;4901962;29;20052;-72
2023/01/12 05:49:36;;;;;;;6.05;2.63;;;;;;;;;;4886290;29;20500;-73
2023/01/12 05:52:02;;;;;;;9.52;3.72;;;;;;;;;;4901987;29;20067;-72
2023/01/12 05:54:28;;;;;;;5.97;2.65;;;;;;;;;;4901952;29;20075;-72
2023/01/12 05:56:54;;;;;;;5.18;2.00;;;;;;;;;;4901728;29;20043;-72
2023/01/12 05:59:20;;;;;;;6.15;2.20;;;;;;;;;;4901859;29;20441;-72
2023/01/12 06:01:46;;;;;;;7.80;2.80;;;;;;;;;;4901161;29;20048;-72
2023/01/12 06:04:12;;;;;;;5.88;2.20;;;;;;;;;;4885557;29;20040;-71
2023/01/12 06:06:38;;;;;;;5.80;2.65;;;;;;;;;;4901550;29;20504;-71
2023/01/12 06:09:06;;;;;;;8.25;2.63;;;;;;;;;;4901350;29;20044;-71
2023/01/12 06:14:17;;;;;;;11.68;4.68;;;;;;;;;;4901326;29;20051;-70
2023/01/12 06:16:44;;;;;;;17.50;4.10;;;;;;;;;;4901220;29;20044;-71
2023/01/12 06:19:10;;;;;;;27.25;4.22;;;8.90;99.90;;;;;;4901172;29;20075;-71
2023/01/12 06:21:37;;;;;;;32.80;4.43;;;;;;;;;;4885624;29;20048;-70
2023/01/12 06:24:03;;;;;;;29.35;4.13;;;;;;;;;;4901352;29;20079;-70
2023/01/12 06:26:29;;;;;;;53.45;5.47;;;;;;;;;;4901034;29;20122;-70
2023/01/12 06:28:55;;;;;;;45.88;5.47;;;;;;;;;;4901120;29;20123;-71
2023/01/12 06:31:21;;;;;;;56.97;7.97;;;;;;;;;;4901145;29;20047;-70
2023/01/12 06:33:47;;;;;;;55.67;7.70;;;;;;;;;;4900748;29;20119;-71
2023/01/12 06:36:14;;;;;;;67.45;5.93;;;;;;;;;;4901119;29;20044;-71
2023/01/12 06:38:40;;;;;;;80.88;7.93;;;;;;;;;;4917707;29;20039;-71
2023/01/12 06:42:27;;;;;;;69.93;8.45;;;9.40;99.90;;;;;;4917916;29;20530;-71
2023/01/12 06:43:55;;;;;;;61.45;6.03;;;;;;;;;;4900696;29;20187;-71
2023/01/12 06:46:21;;;;;;;56.85;6.82;;;;;;;;;;4885320;29;20040;-71
2023/01/12 06:48:47;;;;;;;52.42;5.85;;;;;;;;;;4900633;29;20048;-70
2023/01/12 06:51:13;;;;;;;61.83;5.47;;;;;;;;;;4884977;29;20056;-71
2023/01/12 06:53:39;;;;;;;47.72;4.60;;;;;;;;;;4884916;29;20050;-71
2023/01/12 06:56:05;;;;;;;60.53;5.45;;;;;;;;;;4900745;29;20066;-71
2023/01/12 06:58:31;;;;;;;43.08;6.25;;;;;;;;;;4900536;29;20039;-71
2023/01/12 07:01:01;;;;;;;58.83;6.07;;;;;;;;;;4917673;29;20127;-71
2023/01/12 07:03:27;;;;;;;63.05;7.28;;;;;;;;;;4896505;29;20052;-71
2023/01/12 07:05:53;;;;;;;77.63;7.50;;;;;;;;;;4900504;29;20047;-70
2023/01/12 07:08:19;;;;;;;57.03;6.50;;;;;;;;;;4884211;29;20080;-70
2023/01/12 07:10:45;;;;;;;56.42;6.07;;;;;;;;;;4900236;29;20420;-71
2023/01/12 07:13:12;;;;;;;57.88;5.80;;;;;;;;;;4899964;29;20048;-70
2023/01/12 07:15:38;;;;;;;59.75;5.47;;;;;;;;;;4900564;29;20047;-70
2023/01/12 07:18:04;;;;;;;47.28;6.53;;;;;;;;;;4900033;29;20044;-70
2023/01/12 07:20:31;;;;;;;64.30;5.47;;;;;;;;;;4899779;29;20477;-71
2023/01/12 07:22:57;;;;;;;69.80;6.95;;;;;;;;;;4900133;29;20461;-71
2023/01/12 07:25:26;;;;;;;58.95;6.55;;;;;;;;;;4900042;29;20478;-71
2023/01/12 07:27:53;;;;;;;63.40;5.63;;;;;;;;;;4900186;29;20047;-71
2023/01/12 07:30:22;;;;;;;58.72;5.88;;;;;;;;;;4898725;29;20052;-71
2023/01/12 07:32:49;;;;;;;49.30;5.82;;;;;;;;;;4884536;29;20048;-71
2023/01/12 07:35:15;;;;;;;51.33;4.88;;;;;;;;;;4899795;29;20477;-71
2023/01/12 07:37:54;;;;;;;54.50;4.82;;;10.20;99.90;;;;;;4900155;29;20048;-71
2023/01/12 07:40:20;;;;;;;51.92;5.82;;;;;;;;;;4916725;29;20123;-71
2023/01/12 07:42:46;;;;;;;68.50;5.82;;;;;;;;;;4900160;29;20047;-71
2023/01/12 07:45:13;;;;;;;58.30;5.03;;;;;;;;;;4899982;29;20096;-71
2023/01/12 07:47:39;;;;;;;47.08;4.65;;;;;;;;;;4899822;29;20106;-71
2023/01/12 07:50:05;;;;;;;48.55;5.60;;;;;;;;;;4884646;29;20044;-71
2023/01/12 07:52:32;;;;;;;51.92;6.45;;;;;;;;;;4899687;29;20054;-71
2023/01/12 07:54:58;;;;;;;48.58;4.95;;;;;;;;;;4899662;29;20036;-71
2023/01/12 07:57:24;;;;;;;66.72;7.00;;;;;;;;;;4899905;29;20044;-71
2023/01/12 07:59:50;;;;;;;62.78;5.78;;;;;;;;;;4902756;29;20448;-71
2023/01/12 08:02:18;;;;;;;52.80;4.68;;;;;;;;;;4918811;29;20119;-71
2023/01/12 08:04:44;;;;;;;63.67;4.82;;;;;;;;;;4918627;29;20083;-71
2023/01/12 08:07:10;;;;;;;44.05;6.60;;;;;;;;;;4918540;29;20046;-69
2023/01/12 08:09:36;;;;;;;42.38;5.15;;;;;;;;;;4903119;29;20040;-81
2023/01/12 08:12:02;;;;;;;47.85;5.65;;;;;;;;;;4897367;29;20079;-71
2023/01/12 08:14:33;;;;;;;52.47;5.53;;;;;;;;;;4883761;29;20055;-72
2023/01/12 08:17:01;;;;;;;61.65;7.10;;;10.70;99.90;;;;;;4899622;29;20519;-72
2023/01/12 08:19:37;;;;;;;46.08;5.70;;;10.30;99.90;;;;;;4899025;29;20052;-72
2023/01/12 08:22:05;;;;;;;57.03;6.90;;;;;;;;;;4897760;29;20051;-72
2023/01/12 08:24:33;;;;;;;39.65;4.65;;;;;;;;;;4898765;29;20508;-72
2023/01/12 08:27:01;;;;;;;61.70;6.70;;;;;;;;;;4903051;29;20100;-72
2023/01/12 08:29:31;;;;;;;48.20;5.30;;;;;;;;;;4902673;29;20129;-72
2023/01/12 08:32:02;;;;;;;46.60;5.43;;;10.50;99.90;;;;;;4902145;29;20107;-72
2023/01/12 08:34:29;;;;;;;40.88;4.57;;;;;;;;;;4903467;29;20036;-72
2023/01/12 08:36:55;;;;;;;49.90;4.97;;;;;;;;;;4920004;29;20036;-72
2023/01/12 08:39:22;;;;;;;69.18;6.63;;;;;;;;;;4903184;29;20043;-72
2023/01/12 08:41:48;;;;;;;58.38;4.93;;;;;;;;;;4920051;29;20048;-72
2023/01/12 08:44:14;;;;;;;49.03;5.50;;;;;;;;;;4903156;29;20086;-72
2023/01/12 08:46:48;;;;;;;53.45;5.97;;;10.50;99.90;;;;;;4903160;29;20040;-72
2023/01/12 08:49:16;;;;;;;40.10;4.10;;;;;;;;;;4902800;29;20036;-72
2023/01/12 08:51:42;;;;;;;43.20;4.53;;;;;;;;;;4902730;29;20051;-72
2023/01/12 08:54:09;;;;;;;44.97;4.97;;;10.40;99.90;;;;;;4902703;29;20036;-72
2023/01/12 08:56:36;;;;;;;56.22;6.65;;;;;;;;;;4902702;29;20040;-72
2023/01/12 08:59:02;;;;;;;60.53;5.00;;;10.60;99.90;;;;;;4887161;29;20493;-77
2023/01/12 09:01:28;;;;;;;41.45;4.10;;;;;;;;;;4902998;29;20056;-73
2023/01/12 09:03:58;;;;;;;44.65;4.93;;;10.40;99.90;;;;;;4902909;29;20095;-77
2023/01/12 09:06:35;;;;;;;73.70;6.63;;;10.40;99.90;;;;;;4902834;29;20051;-72
2023/01/12 09:09:03;;;;;;;49.40;5.00;;;;;;;;;;4902521;29;20103;-72
2023/01/12 09:11:29;;;;;;;42.65;5.40;;;;;;;;;;4919414;29;20060;-78
2023/01/12 09:13:57;;;;;;;36.55;4.28;;;;;;;;;;4917953;29;20063;-72
2023/01/12 09:16:26;;;;;;;49.05;6.00;;;;;;;;;;4902286;29;20048;-72
2023/01/12 09:18:52;;;;;;;47.33;4.57;;;;;;;;;;4902082;29;20488;-71
2023/01/12 09:21:20;;;;;;;38.42;4.20;;;;;;;;;;4902461;29;20084;-71
2023/01/12 09:23:48;;;;;;;54.00;5.85;;;;;;;;;;4902208;29;20433;-71
2023/01/12 09:26:39;;;;;;;39.17;5.07;;;10.50;99.90;;;;;;4902381;29;20087;-71
2023/01/12 09:29:06;;;;;;;35.78;4.68;;;10.60;99.90;;;;;;4902091;29;20400;-72
2023/01/12 09:31:33;;;;;;;50.13;5.78;;;10.70;99.90;;;;;;4902120;29;20052;-71
2023/01/12 09:33:59;;;;;;;46.78;4.70;;;;;;;;;;4918950;29;20040;-71
2023/01/12 09:36:32;;;;;;;55.65;6.38;;;10.70;99.90;;;;;;4918757;29;20052;-72
2023/01/12 09:38:58;;;;;;;40.28;3.97;;;;;;;;;;4919219;29;20389;-72
2023/01/12 09:47:26;;;;;;;57.00;5.68;;;10.70;99.90;;;;;;4902051;29;20056;-73
2023/01/12 09:50:08;;;;;;;44.97;6.35;;;;;;;;;;4901543;29;20496;-72
2023/01/12 09:52:54;;;;;;;47.47;6.20;;;;;;;;;;4901631;29;20058;-75
2023/01/12 09:55:27;;;;;;;57.88;4.80;;;10.70;99.90;;;;;;4885853;29;20052;-72
2023/01/12 09:57:53;;;;;;;39.88;4.97;;;;;;;;;;4901627;29;20052;-72
2023/01/12 10:00:20;;;;;;;43.78;5.63;;;;;;;;;;4901531;29;20086;-72
2023/01/12 10:02:49;;;;;;;54.65;5.43;;;;;;;;;;4901728;29;20044;-72
2023/01/12 10:05:41;;;;;;;52.60;5.57;;;11.00;99.90;;;;;;4885886;29;20052;-72
2023/01/12 10:08:13;;;;;;;48.20;5.38;;;;;;;;;;4901380;29;20043;-72
2023/01/12 10:10:47;;;;;;;47.83;5.65;;;10.70;99.90;;;;;;4901244;29;20127;-73
2023/01/12 10:13:14;;;;;;;58.92;6.95;;;;;;;;;;4885775;29;20052;-73
2023/01/12 10:15:56;;;;;;;45.13;4.13;;;10.80;99.90;;;;;;4891115;29;20392;-73
2023/01/12 10:18:34;;;;;;;51.00;5.50;;;;;;;;;;4867444;29;20052;-73
2023/01/12 10:21:00;;;;;;;47.65;5.53;;;;;;;;;;4895159;29;20532;-73
2023/01/12 10:23:27;;;;;;;55.00;4.95;;;10.90;99.90;;;;;;4901382;29;20048;-73
2023/01/12 10:25:59;;;;;;;47.97;5.63;;;;;;;;;;4901273;29;20052;-73
2023/01/12 10:28:25;;;;;;;53.75;8.02;;;;;;;;;;4901067;29;20104;-73
2023/01/12 10:30:52;;;;;;;53.67;6.55;;;10.70;99.90;;;;;;4901058;29;20505;-71
2023/01/12 10:33:29;;;;;;;54.75;5.45;;;10.70;99.90;;;;;;4885162;29;20048;-73
2023/01/12 10:35:57;;;;;;;58.80;7.40;;;;;;;;;;4900789;29;20489;-73
2023/01/12 10:38:52;;;;;;;50.58;5.10;;;;;;;;;;4900765;29;20056;-73
2023/01/12 10:41:20;;;;;;;68.53;8.75;;;10.80;99.90;;;;;;4917762;29;20500;-74
2023/01/12 10:44:07;;;;;;;41.47;5.43;;;;;;;;;;4901064;29;20393;-73
2023/01/12 10:46:34;;;;;;;48.97;8.05;;;10.90;99.90;;;;;;4900400;29;20055;-71
2023/01/12 10:49:20;;;;;;;51.13;7.80;;;;;;;;;;4884683;29;20052;-76
2023/01/12 10:52:08;;;;;;;40.90;5.55;;;11.00;99.90;;;;;;4900627;29;20374;-71
2023/01/12 10:54:36;;;;;;;46.05;4.47;;;;;;;;;;4900768;29;20036;-71
2023/01/12 10:57:06;;;;;;;43.42;5.93;;;11.00;99.90;;;;;;4900534;29;20052;-70
2023/01/12 10:59:34;;;;;;;40.85;6.25;;;11.00;99.90;;;;;;4900801;29;20110;-71
2023/01/12 11:02:12;;;;;;;51.38;5.93;;;;;;;;;;4884864;29;20134;-70
2023/01/12 11:04:50;;;;;;;54.60;5.75;;;;;;;;;;4900436;29;20111;-70
2023/01/12 11:07:29;;;;;;;48.45;5.32;;;;;;;;;;4885037;29;20057;-71
2023/01/12 11:10:16;;;;;;;45.22;5.45;;;11.00;99.90;;;;;;4900164;29;20131;-71
2023/01/12 11:12:42;;;;;;;35.10;5.15;;;;;;;;;;4900028;29;20064;-70
2023/01/12 11:15:11;;;;;;;44.33;4.68;;;;;;;;;;4899083;29;20079;-71
2023/01/12 11:17:47;;;;;;;48.13;4.93;;;;;;;;;;4900076;29;20047;-71
2023/01/12 11:20:20;;;;;;;52.25;4.75;;;;;;;;;;4898894;29;20043;-70
2023/01/12 11:22:47;;;;;;;45.88;4.95;;;;;;;;;;4900477;29;20051;-71
2023/01/12 11:25:21;;;;;;;56.45;6.75;;;11.30;99.90;;;;;;4900342;29;20040;-71
2023/01/12 11:27:54;;;;;;;38.15;4.30;;;;;;;;;;4900186;29;20147;-70
2023/01/12 11:30:20;;;;;;;;;;;;;;;;;;4881559;29;20045;-71
2023/01/12 11:32:54;;;;;;;46.60;5.65;;;;;;;;;;4881216;29;19927;-71
2023/01/12 11:35:43;;;;;;;48.15;5.00;;;11.20;99.90;;;;;;4881524;29;20045;-70
2023/01/12 11:38:13;;;;;;;38.83;5.72;;;;;;;;;;4881351;29;20080;-71
2023/01/12 11:40:40;;;;;;;38.05;4.22;;;11.50;99.90;;;;;;4866082;29;20048;-71
2023/01/12 11:43:51;;;;;;;39.28;4.50;;;;;;;;;;4881486;29;20397;-71
2023/01/12 11:46:25;;;;;;;42.67;5.65;;;;;;;;;;4881107;29;20155;-71
2023/01/12 11:48:56;;;;;;;31.13;3.58;;;;;;;;;;4900708;29;20127;-71
2023/01/12 11:51:22;;;;;;;35.45;4.75;;;;;;;;;;4899742;29;20044;-72
2023/01/12 11:53:48;;;;;;;45.50;4.65;;;;;;;;;;4899866;29;20044;-72
2023/01/12 11:56:14;;;;;;;35.22;3.70;;;;;;;;;;4884639;29;20441;-72
2023/01/12 11:58:51;;;;;;;49.45;5.18;;;11.30;99.90;;;;;;4900108;29;20092;-71
2023/01/12 12:01:30;;;;;;;37.53;4.43;;;;;;;;;;4903735;29;20095;-71
2023/01/12 12:04:23;;;;;;;32.88;5.05;;;11.40;99.90;;;;;;4904064;29;20139;-71
2023/01/12 12:06:49;;;;;;;41.92;5.32;;;;;;;;;;4903886;29;20063;-72
2023/01/12 12:09:38;;;;;;;36.88;4.28;;;11.30;99.90;;;;;;4903445;29;20458;-72
2023/01/12 12:12:11;;;;;;;47.38;5.03;;;11.30;99.90;;;;;;4903540;29;20072;-71
2023/01/12 12:14:42;;;;;;;48.45;4.35;;;;;;;;;;4903568;29;20552;-76
2023/01/12 12:17:08;;;;;;;52.88;5.20;;;;;;;;;;4886376;29;20040;-71
2023/01/12 12:19:45;;;;;;;38.40;4.15;;;;;;;;;;4903110;29;20051;-71
2023/01/12 12:22:11;;;;;;;41.00;3.75;;;;;;;;;;4884304;29;20048;-71
2023/01/12 12:24:56;;;;;;;46.22;5.50;;;;;;;;;;4884409;29;20056;-71
2023/01/12 12:27:33;;;;;;;49.35;7.90;;;11.20;99.90;;;;;;4884477;29;20145;-71
2023/01/12 12:30:42;;;;;;;37.45;4.80;;;11.30;99.90;;;;;;4897046;29;20040;-71
2023/01/12 12:33:30;;;;;;;36.42;4.82;;;11.10;99.90;;;;;;4902925;29;20046;-71
2023/01/12 12:36:23;;;;;;;38.83;3.58;;;11.10;99.90;;;;;;4902677;29;20075;-71
2023/01/12 12:39:25;;;;;;;;;;;;;;;;;;;;;
2023/01/12 12:45:15;;;;;;;56.25;4.28;;;;;;;;;;4902676;29;20142;-70
2023/01/12 12:47:44;;;;;;;51.58;5.47;;;;;;;;;;4904685;29;20130;-70
2023/01/12 12:50:21;;;;;;;38.20;4.57;;;11.10;99.90;;;;;;4894090;29;20032;-71
2023/01/12 12:52:51;;;;;;;46.45;4.80;;;11.20;99.90;;;;;;4890639;29;20397;-71
2023/01/12 12:55:17;;;;;;;42.97;5.20;;;;;;;;;;4887395;29;20044;-75
2023/01/12 12:58:21;;;;;;;34.22;4.30;;;11.00;99.90;;;;;;4887071;29;20092;-76
2023/01/12 13:00:49;;;;;;;53.65;4.88;;;;;;;;;;4824310;29;20049;-75
2023/01/12 13:03:33;;;;;;;48.22;5.20;;;;;;;;;;4809082;29;20046;-75
2023/01/12 13:06:18;;;;;;;51.17;5.85;;;;;;;;;;4859562;29;20052;-75
2023/01/12 13:08:46;;;;;;;48.40;5.50;;;11.20;99.90;;;;;;4899518;29;20048;-76
2023/01/12 13:11:13;;;;;;;47.00;5.97;;;;;;;;;;4901481;29;20056;-75
2023/01/12 13:13:56;;;;;;;62.90;6.85;;;;;;;;;;4902392;29;20449;-71
2023/01/12 13:16:28;;;;;;;45.20;4.43;;;;;;;;;;4902003;29;20055;-71
2023/01/12 13:18:54;;;;;;;45.50;4.68;;;;;;;;;;4902100;29;20059;-71
2023/01/12 13:21:54;;;;;;;41.97;5.05;;;11.00;99.90;;;;;;4886650;29;20082;-71
2023/01/12 13:24:25;;;;;;;39.13;5.60;;;;;;;;;;4897528;29;20457;-71
2023/01/12 13:26:52;;;;;;;41.78;4.78;;;;;;;;;;4901830;29;20075;-71
2023/01/12 13:29:27;;;;;;;50.97;4.57;;;10.90;99.90;;;;;;4885123;29;20111;-71
2023/01/12 13:31:56;;;;;;;44.38;4.95;;;;;;;;;;4901769;29;20107;-71
2023/01/12 13:34:31;;;;;;;44.63;6.18;;;11.00;99.90;;;;;;4901999;29;20051;-71
2023/01/12 13:37:22;;;;;;;40.00;5.25;;;11.20;99.90;;;;;;4886475;29;20043;-71
2023/01/12 13:40:12;;;;;;;42.15;4.82;;;11.20;99.90;;;;;;4918846;29;20123;-71
2023/01/12 13:45:23;;;;;;;48.25;4.75;;;;;;;;;;4895709;29;20036;-71
2023/01/12 13:47:51;;;;;;;39.97;3.90;;;11.20;99.90;;;;;;4900770;29;20515;-71
2023/01/12 13:50:20;;;;;;;44.38;4.63;;;;;;;;;;4901587;29;20508;-71
2023/01/12 13:52:59;;;;;;;56.60;4.22;;;11.10;99.90;;;;;;4900867;29;20044;-70
2023/01/12 13:55:28;;;;;;;43.35;5.22;;;10.90;99.90;;;;;;4901375;29;20040;-71
2023/01/12 13:57:55;;;;;;;50.75;5.88;;;;;;;;;;4901052;29;20172;-71
2023/01/12 14:00:22;;;;;;;52.42;6.32;;;;;;;;;;4884981;29;20107;-71
2023/01/12 14:02:49;;;;;;;39.05;6.22;;;10.90;99.90;;;;;;4885261;29;20035;-71
2023/01/12 14:05:22;;;;;;;43.88;4.95;;;;;;;;;;4885629;29;20126;-72
2023/01/12 14:07:59;;;;;;;62.70;5.53;;;;;;;;;;4898465;29;20047;-71
2023/01/12 14:10:32;;;;;;;62.90;7.97;;;;;;;;;;4900783;29;20488;-71
2023/01/12 14:13:27;;;;;;;51.75;5.15;;;10.90;99.90;;;;;;4900513;29;20572;-71
2023/01/12 14:18:47;;;;;;;34.08;3.97;;;10.90;99.90;;;;;;4900473;29;20133;-71
2023/01/12 14:21:28;;;;;;;34.45;4.72;;;12.30;99.90;;;;;;4917646;29;20051;-71
2023/01/12 14:24:19;;;;;;;27.63;5.35;;;10.90;99.90;;;;;;4898329;29;20071;-71
2023/01/12 14:26:45;;;;;;;28.27;4.20;;;;;;;;;;4900611;29;20366;-71
2023/01/12 14:29:11;;;;;;;25.95;4.75;;;;;;;;;;4900217;29;20040;-71
2023/01/12 14:31:48;;;;;;;17.33;3.47;;;;;;;;;;4900445;29;20075;-71
2023/01/12 14:34:35;;;;;;;23.98;3.92;;;10.80;99.90;;;;;;4899307;29;20059;-71
2023/01/12 14:37:03;;;;;;;25.67;3.90;;;;;;;;;;4899640;29;20079;-71
2023/01/12 14:39:35;;;;;;;18.98;4.72;;;;;;;;;;4898094;29;20044;-71
2023/01/12 14:47:40;;;;;;;25.77;4.30;;;;;;;;;;5092899;28;20110;-71
2023/01/12 14:50:24;;;;;;;26.02;6.32;;;;;;;;;;5079689;28;20079;-72
2023/01/12 14:52:50;;;;;;;18.48;4.30;;;;;;;;;;5073879;28;20488;-71
2023/01/12 14:55:40;;;;;;;24.52;4.82;;;10.70;99.90;;;;;;5058490;28;20037;-72
2023/01/12 14:58:14;;;;;;;21.20;4.72;;;;;;;;;;5074478;28;20120;-72
2023/01/12 15:00:42;;;;;;;22.73;5.18;;;;;;;;;;5040828;28;20162;-72
2023/01/12 15:03:17;;;;;;;24.63;4.63;;;;;;;;;;5037415;28;20036;-72